<?xml version="1.0"?>
<gpx xmlns="http://www.topografix.com/GPX/1/1" version="1.1" creator="afstandmeten.nl" xmlns:xsi="http://www.w3.org/2001/XMLSchema-instance" xsi:schemaLocation="http://www.topografix.com/GPX/1/1 http://www.topografix.com/GPX/1/1/gpx.xsd">
  <trk>
    <name>Wandeling Lenteloop 2026</name>
    <desc/>
    <trkseg>
      <trkpt lat="52.0922839" lon="6.0356739">
        <ele>0.00000</ele>
        <time>2026-01-12T00:00:00Z</time>
      </trkpt>
      <trkpt lat="52.0919068" lon="6.0352135">
        <ele>0.00000</ele>
        <time>2026-01-12T00:00:18Z</time>
      </trkpt>
      <trkpt lat="52.0918167" lon="6.0351455">
        <ele>0.00000</ele>
        <time>2026-01-12T00:00:22Z</time>
      </trkpt>
      <trkpt lat="52.0915201" lon="6.0355245">
        <ele>0.00000</ele>
        <time>2026-01-12T00:00:36Z</time>
      </trkpt>
      <trkpt lat="52.0912564" lon="6.0358964">
        <ele>0.00000</ele>
        <time>2026-01-12T00:00:49Z</time>
      </trkpt>
      <trkpt lat="52.0910103" lon="6.0363291">
        <ele>0.00000</ele>
        <time>2026-01-12T00:01:03Z</time>
      </trkpt>
      <trkpt lat="52.0908741" lon="6.0364757">
        <ele>0.00000</ele>
        <time>2026-01-12T00:01:09Z</time>
      </trkpt>
      <trkpt lat="52.0906807" lon="6.0366152">
        <ele>0.00000</ele>
        <time>2026-01-12T00:01:17Z</time>
      </trkpt>
      <trkpt lat="52.0904764" lon="6.036905">
        <ele>0.00000</ele>
        <time>2026-01-12T00:01:27Z</time>
      </trkpt>
      <trkpt lat="52.0903314" lon="6.0370587">
        <ele>0.00000</ele>
        <time>2026-01-12T00:01:34Z</time>
      </trkpt>
      <trkpt lat="52.08996" lon="6.0367263">
        <ele>0.00000</ele>
        <time>2026-01-12T00:01:50Z</time>
      </trkpt>
      <trkpt lat="52.0894502" lon="6.036934">
        <ele>0.00000</ele>
        <time>2026-01-12T00:02:10Z</time>
      </trkpt>
      <trkpt lat="52.089303" lon="6.0375529">
        <ele>0.00000</ele>
        <time>2026-01-12T00:02:25Z</time>
      </trkpt>
      <trkpt lat="52.0889932" lon="6.037943">
        <ele>0.00000</ele>
        <time>2026-01-12T00:02:40Z</time>
      </trkpt>
      <trkpt lat="52.0895074" lon="6.0388403">
        <ele>0.00000</ele>
        <time>2026-01-12T00:03:08Z</time>
      </trkpt>
      <trkpt lat="52.0893426" lon="6.0395843">
        <ele>0.00000</ele>
        <time>2026-01-12T00:03:26Z</time>
      </trkpt>
      <trkpt lat="52.0874264" lon="6.0363582">
        <ele>0.00000</ele>
        <time>2026-01-12T00:05:10Z</time>
      </trkpt>
      <trkpt lat="52.0869649" lon="6.0373028">
        <ele>0.00000</ele>
        <time>2026-01-12T00:05:38Z</time>
      </trkpt>
      <trkpt lat="52.0851234" lon="6.0335547">
        <ele>0.00000</ele>
        <time>2026-01-12T00:07:29Z</time>
      </trkpt>
      <trkpt lat="52.0845785" lon="6.0325333">
        <ele>0.00000</ele>
        <time>2026-01-12T00:08:00Z</time>
      </trkpt>
      <trkpt lat="52.0838312" lon="6.0310221">
        <ele>0.00000</ele>
        <time>2026-01-12T00:08:45Z</time>
      </trkpt>
      <trkpt lat="52.0828554" lon="6.0322236">
        <ele>0.00000</ele>
        <time>2026-01-12T00:09:31Z</time>
      </trkpt>
      <trkpt lat="52.0832708" lon="6.0331786">
        <ele>0.00000</ele>
        <time>2026-01-12T00:09:58Z</time>
      </trkpt>
      <trkpt lat="52.0817412" lon="6.035378">
        <ele>0.00000</ele>
        <time>2026-01-12T00:11:15Z</time>
      </trkpt>
      <trkpt lat="52.0842629" lon="6.0398035">
        <ele>0.00000</ele>
        <time>2026-01-12T00:13:35Z</time>
      </trkpt>
      <trkpt lat="52.0843717" lon="6.0404044">
        <ele>0.00000</ele>
        <time>2026-01-12T00:13:50Z</time>
      </trkpt>
      <trkpt lat="52.0830268" lon="6.042341">
        <ele>0.00000</ele>
        <time>2026-01-12T00:14:57Z</time>
      </trkpt>
      <trkpt lat="52.0837355" lon="6.0437571">
        <ele>0.00000</ele>
        <time>2026-01-12T00:15:39Z</time>
      </trkpt>
      <trkpt lat="52.0837587" lon="6.0440791">
        <ele>0.00000</ele>
        <time>2026-01-12T00:15:47Z</time>
      </trkpt>
      <trkpt lat="52.0837257" lon="6.0443473">
        <ele>0.00000</ele>
        <time>2026-01-12T00:15:53Z</time>
      </trkpt>
      <trkpt lat="52.0835971" lon="6.044755">
        <ele>0.00000</ele>
        <time>2026-01-12T00:16:04Z</time>
      </trkpt>
      <trkpt lat="52.0832246" lon="6.0451841">
        <ele>0.00000</ele>
        <time>2026-01-12T00:16:21Z</time>
      </trkpt>
      <trkpt lat="52.0830631" lon="6.0454415">
        <ele>0.00000</ele>
        <time>2026-01-12T00:16:30Z</time>
      </trkpt>
      <trkpt lat="52.0829674" lon="6.0458492">
        <ele>0.00000</ele>
        <time>2026-01-12T00:16:40Z</time>
      </trkpt>
      <trkpt lat="52.0828917" lon="6.0465091">
        <ele>0.00000</ele>
        <time>2026-01-12T00:16:55Z</time>
      </trkpt>
      <trkpt lat="52.0827104" lon="6.0471582">
        <ele>0.00000</ele>
        <time>2026-01-12T00:17:12Z</time>
      </trkpt>
      <trkpt lat="52.0823543" lon="6.0475874">
        <ele>0.00000</ele>
        <time>2026-01-12T00:17:28Z</time>
      </trkpt>
      <trkpt lat="52.082051" lon="6.0473943">
        <ele>0.00000</ele>
        <time>2026-01-12T00:17:41Z</time>
      </trkpt>
      <trkpt lat="52.0817707" lon="6.0467613">
        <ele>0.00000</ele>
        <time>2026-01-12T00:17:59Z</time>
      </trkpt>
      <trkpt lat="52.0806994" lon="6.0482526">
        <ele>0.00000</ele>
        <time>2026-01-12T00:18:52Z</time>
      </trkpt>
      <trkpt lat="52.081273" lon="6.0504197">
        <ele>0.00000</ele>
        <time>2026-01-12T00:19:46Z</time>
      </trkpt>
      <trkpt lat="52.0768025" lon="6.0551833">
        <ele>0.00000</ele>
        <time>2026-01-12T00:23:08Z</time>
      </trkpt>
      <trkpt lat="52.0782268" lon="6.0608052">
        <ele>0.00000</ele>
        <time>2026-01-12T00:25:28Z</time>
      </trkpt>
      <trkpt lat="52.0805312" lon="6.0590351">
        <ele>0.00000</ele>
        <time>2026-01-12T00:27:04Z</time>
      </trkpt>
      <trkpt lat="52.080584" lon="6.0590403">
        <ele>0.00000</ele>
        <time>2026-01-12T00:27:06Z</time>
      </trkpt>
      <trkpt lat="52.0819785" lon="6.0547972">
        <ele>0.00000</ele>
        <time>2026-01-12T00:28:58Z</time>
      </trkpt>
      <trkpt lat="52.0819817" lon="6.0546148">
        <ele>0.00000</ele>
        <time>2026-01-12T00:29:02Z</time>
      </trkpt>
      <trkpt lat="52.0820444" lon="6.0546041">
        <ele>0.00000</ele>
        <time>2026-01-12T00:29:04Z</time>
      </trkpt>
      <trkpt lat="52.0820608" lon="6.0545771">
        <ele>0.00000</ele>
        <time>2026-01-12T00:29:05Z</time>
      </trkpt>
      <trkpt lat="52.0821401" lon="6.0545771">
        <ele>0.00000</ele>
        <time>2026-01-12T00:29:08Z</time>
      </trkpt>
      <trkpt lat="52.0822093" lon="6.0544109">
        <ele>0.00000</ele>
        <time>2026-01-12T00:29:13Z</time>
      </trkpt>
      <trkpt lat="52.0822126" lon="6.0538422">
        <ele>0.00000</ele>
        <time>2026-01-12T00:29:26Z</time>
      </trkpt>
      <trkpt lat="52.0821203" lon="6.0536814">
        <ele>0.00000</ele>
        <time>2026-01-12T00:29:31Z</time>
      </trkpt>
      <trkpt lat="52.082196" lon="6.0531235">
        <ele>0.00000</ele>
        <time>2026-01-12T00:29:44Z</time>
      </trkpt>
      <trkpt lat="52.0830268" lon="6.0542554">
        <ele>0.00000</ele>
        <time>2026-01-12T00:30:25Z</time>
      </trkpt>
      <trkpt lat="52.0850442" lon="6.0581124">
        <ele>0.00000</ele>
        <time>2026-01-12T00:32:22Z</time>
      </trkpt>
      <trkpt lat="52.0851628" lon="6.0581981">
        <ele>0.00000</ele>
        <time>2026-01-12T00:32:27Z</time>
      </trkpt>
      <trkpt lat="52.0853969" lon="6.0585307">
        <ele>0.00000</ele>
        <time>2026-01-12T00:32:39Z</time>
      </trkpt>
      <trkpt lat="52.0871209" lon="6.0562134">
        <ele>0.00000</ele>
        <time>2026-01-12T00:34:03Z</time>
      </trkpt>
      <trkpt lat="52.0872133" lon="6.0562669">
        <ele>0.00000</ele>
        <time>2026-01-12T00:34:07Z</time>
      </trkpt>
      <trkpt lat="52.0873253" lon="6.0567927">
        <ele>0.00000</ele>
        <time>2026-01-12T00:34:20Z</time>
      </trkpt>
      <trkpt lat="52.0874834" lon="6.0571038">
        <ele>0.00000</ele>
        <time>2026-01-12T00:34:29Z</time>
      </trkpt>
      <trkpt lat="52.0876615" lon="6.057651">
        <ele>0.00000</ele>
        <time>2026-01-12T00:34:43Z</time>
      </trkpt>
      <trkpt lat="52.0877471" lon="6.0578012">
        <ele>0.00000</ele>
        <time>2026-01-12T00:34:48Z</time>
      </trkpt>
      <trkpt lat="52.0877604" lon="6.058123">
        <ele>0.00000</ele>
        <time>2026-01-12T00:34:55Z</time>
      </trkpt>
      <trkpt lat="52.0879284" lon="6.0585523">
        <ele>0.00000</ele>
        <time>2026-01-12T00:35:07Z</time>
      </trkpt>
      <trkpt lat="52.0883174" lon="6.0584824">
        <ele>0.00000</ele>
        <time>2026-01-12T00:35:22Z</time>
      </trkpt>
      <trkpt lat="52.0884822" lon="6.0585791">
        <ele>0.00000</ele>
        <time>2026-01-12T00:35:29Z</time>
      </trkpt>
      <trkpt lat="52.0886141" lon="6.0589062">
        <ele>0.00000</ele>
        <time>2026-01-12T00:35:38Z</time>
      </trkpt>
      <trkpt lat="52.0887954" lon="6.05896">
        <ele>0.00000</ele>
        <time>2026-01-12T00:35:45Z</time>
      </trkpt>
      <trkpt lat="52.0890722" lon="6.0588311">
        <ele>0.00000</ele>
        <time>2026-01-12T00:35:55Z</time>
      </trkpt>
      <trkpt lat="52.0897645" lon="6.0576296">
        <ele>0.00000</ele>
        <time>2026-01-12T00:36:34Z</time>
      </trkpt>
      <trkpt lat="52.0919927" lon="6.0544845">
        <ele>0.00000</ele>
        <time>2026-01-12T00:38:25Z</time>
      </trkpt>
      <trkpt lat="52.0919989" lon="6.054458">
        <ele>0.00000</ele>
        <time>2026-01-12T00:38:25Z</time>
      </trkpt>
      <trkpt lat="52.0907199" lon="6.0493319">
        <ele>0.00000</ele>
        <time>2026-01-12T00:40:33Z</time>
      </trkpt>
      <trkpt lat="52.090716" lon="6.0492309">
        <ele>0.00000</ele>
        <time>2026-01-12T00:40:36Z</time>
      </trkpt>
      <trkpt lat="52.0913089" lon="6.048092">
        <ele>0.00000</ele>
        <time>2026-01-12T00:41:10Z</time>
      </trkpt>
      <trkpt lat="52.0924899" lon="6.05026">
        <ele>0.00000</ele>
        <time>2026-01-12T00:42:17Z</time>
      </trkpt>
      <trkpt lat="52.0913089" lon="6.048092">
        <ele>0.00000</ele>
        <time>2026-01-12T00:43:24Z</time>
      </trkpt>
      <trkpt lat="52.090741" lon="6.049171">
        <ele>0.00000</ele>
        <time>2026-01-12T00:43:57Z</time>
      </trkpt>
      <trkpt lat="52.0913089" lon="6.048092">
        <ele>0.00000</ele>
        <time>2026-01-12T00:44:30Z</time>
      </trkpt>
      <trkpt lat="52.0924899" lon="6.05026">
        <ele>0.00000</ele>
        <time>2026-01-12T00:45:37Z</time>
      </trkpt>
      <trkpt lat="52.0931658" lon="6.0517716">
        <ele>0.00000</ele>
        <time>2026-01-12T00:46:20Z</time>
      </trkpt>
      <trkpt lat="52.0943128" lon="6.0503554">
        <ele>0.00000</ele>
        <time>2026-01-12T00:47:14Z</time>
      </trkpt>
      <trkpt lat="52.0933932" lon="6.0487086">
        <ele>0.00000</ele>
        <time>2026-01-12T00:48:06Z</time>
      </trkpt>
      <trkpt lat="52.093614" lon="6.0483973">
        <ele>0.00000</ele>
        <time>2026-01-12T00:48:17Z</time>
      </trkpt>
      <trkpt lat="52.0956836" lon="6.0509293">
        <ele>0.00000</ele>
        <time>2026-01-12T00:49:54Z</time>
      </trkpt>
      <trkpt lat="52.09629" lon="6.0493468">
        <ele>0.00000</ele>
        <time>2026-01-12T00:50:38Z</time>
      </trkpt>
      <trkpt lat="52.0964548" lon="6.0485207">
        <ele>0.00000</ele>
        <time>2026-01-12T00:50:58Z</time>
      </trkpt>
      <trkpt lat="52.09629" lon="6.0443901">
        <ele>0.00000</ele>
        <time>2026-01-12T00:52:33Z</time>
      </trkpt>
      <trkpt lat="52.0964548" lon="6.0443634">
        <ele>0.00000</ele>
        <time>2026-01-12T00:52:40Z</time>
      </trkpt>
      <trkpt lat="52.0968603" lon="6.0442077">
        <ele>0.00000</ele>
        <time>2026-01-12T00:52:55Z</time>
      </trkpt>
      <trkpt lat="52.0968866" lon="6.0438751">
        <ele>0.00000</ele>
        <time>2026-01-12T00:53:03Z</time>
      </trkpt>
      <trkpt lat="52.0969591" lon="6.0435802">
        <ele>0.00000</ele>
        <time>2026-01-12T00:53:11Z</time>
      </trkpt>
      <trkpt lat="52.0966723" lon="6.0422175">
        <ele>0.00000</ele>
        <time>2026-01-12T00:53:44Z</time>
      </trkpt>
      <trkpt lat="52.0966196" lon="6.0394388">
        <ele>0.00000</ele>
        <time>2026-01-12T00:54:48Z</time>
      </trkpt>
      <trkpt lat="52.0962605" lon="6.0372341">
        <ele>0.00000</ele>
        <time>2026-01-12T00:55:41Z</time>
      </trkpt>
      <trkpt lat="52.0958683" lon="6.0359465">
        <ele>0.00000</ele>
        <time>2026-01-12T00:56:14Z</time>
      </trkpt>
      <trkpt lat="52.0958419" lon="6.0357641">
        <ele>0.00000</ele>
        <time>2026-01-12T00:56:19Z</time>
      </trkpt>
      <trkpt lat="52.0960199" lon="6.0352921">
        <ele>0.00000</ele>
        <time>2026-01-12T00:56:31Z</time>
      </trkpt>
      <trkpt lat="52.0960462" lon="6.0347664">
        <ele>0.00000</ele>
        <time>2026-01-12T00:56:44Z</time>
      </trkpt>
      <trkpt lat="52.0958419" lon="6.0347128">
        <ele>0.00000</ele>
        <time>2026-01-12T00:56:51Z</time>
      </trkpt>
      <trkpt lat="52.0949453" lon="6.0331607">
        <ele>0.00000</ele>
        <time>2026-01-12T00:57:41Z</time>
      </trkpt>
      <trkpt lat="52.0944662" lon="6.0329389">
        <ele>0.00000</ele>
        <time>2026-01-12T00:57:59Z</time>
      </trkpt>
      <trkpt lat="52.0938118" lon="6.0327601">
        <ele>0.00000</ele>
        <time>2026-01-12T00:58:24Z</time>
      </trkpt>
      <trkpt lat="52.0937096" lon="6.0324544">
        <ele>0.00000</ele>
        <time>2026-01-12T00:58:32Z</time>
      </trkpt>
      <trkpt lat="52.0936009" lon="6.0327493">
        <ele>0.00000</ele>
        <time>2026-01-12T00:58:40Z</time>
      </trkpt>
      <trkpt lat="52.0935745" lon="6.0333019">
        <ele>0.00000</ele>
        <time>2026-01-12T00:58:53Z</time>
      </trkpt>
      <trkpt lat="52.0930571" lon="6.0343587">
        <ele>0.00000</ele>
        <time>2026-01-12T00:59:24Z</time>
      </trkpt>
      <trkpt lat="52.0923913" lon="6.035115">
        <ele>0.00000</ele>
        <time>2026-01-12T00:59:55Z</time>
      </trkpt>
    </trkseg>
  </trk>
</gpx>

